createdAt,value
2019-05-19T02:24:22.986Z,62.46
2019-05-19T02:25:22.961Z,62.34
2019-05-19T02:26:22.943Z,62.77
2019-05-19T02:27:22.932Z,62.87
2019-05-19T02:28:22.954Z,63.14
2019-05-19T02:29:22.908Z,62.87
2019-05-19T02:30:22.899Z,63.37
2019-05-19T02:32:22.880Z,62.77
2019-05-19T02:33:22.866Z,62.46
2019-05-19T02:34:22.854Z,63.37
2019-05-19T02:35:22.853Z,62.97
2019-05-19T02:36:22.833Z,63.58
2019-05-19T02:37:22.818Z,63.48
2019-05-19T02:38:22.811Z,62.77
2019-05-19T02:39:22.795Z,62.97
2019-05-19T02:40:22.794Z,63.88
2019-05-19T02:41:22.772Z,62.87
2019-05-19T02:42:22.761Z,62.87
2019-05-19T02:43:22.750Z,62.87
2019-05-19T02:44:22.739Z,62.87
2019-05-19T02:45:22.725Z,62.87
2019-05-19T02:46:22.718Z,63.07
2019-05-19T02:47:22.711Z,62.87
2019-05-19T02:48:22.695Z,62.87
2019-05-19T02:49:22.679Z,62.87
2019-05-19T02:50:22.679Z,62.87
2019-05-19T02:51:22.662Z,63.07
2019-05-19T02:52:22.647Z,62.97
2019-05-19T02:53:22.634Z,63.07
2019-05-19T02:55:22.616Z,63.78
2019-05-19T02:56:22.601Z,62.97
2019-05-19T02:57:22.590Z,63.78
2019-05-19T02:58:22.583Z,63.98
2019-05-19T02:59:22.568Z,63.98
2019-05-19T03:00:22.554Z,63.07
2019-05-19T03:01:22.543Z,63.98
2019-05-19T03:02:22.544Z,62.84
2019-05-19T03:03:22.523Z,62.77
2019-05-19T03:04:22.509Z,62.84
2019-05-19T03:05:22.504Z,63.75
2019-05-19T03:06:22.486Z,62.74
2019-05-19T03:07:22.476Z,62.94
2019-05-19T03:08:22.464Z,63.95
2019-05-19T03:09:22.455Z,62.84
2019-05-19T03:10:22.442Z,62.64
2019-05-19T03:11:22.428Z,63.04
2019-05-19T03:12:22.418Z,62.94
2019-05-19T03:13:22.406Z,62.74
2019-05-19T03:14:22.396Z,62.94
2019-05-19T03:15:22.386Z,62.84
2019-05-19T03:16:22.371Z,63.04
2019-05-19T03:17:22.361Z,63.04
2019-05-19T03:18:22.359Z,62.94
2019-05-19T03:19:22.339Z,62.94
2019-05-19T03:20:22.329Z,62.84
2019-05-19T03:21:22.325Z,62.74
2019-05-19T03:22:22.307Z,63.85
2019-05-19T03:23:22.439Z,62.87
2019-05-19T03:24:22.287Z,62.97
2019-05-19T03:25:22.272Z,63.07
2019-05-19T03:26:22.256Z,63.07
2019-05-19T03:27:22.251Z,63.28
2019-05-19T03:28:22.232Z,63.37
2019-05-19T03:29:22.227Z,63.48
2019-05-19T03:30:22.216Z,63.07
2019-05-19T03:31:22.365Z,63.28
2019-05-19T03:32:22.187Z,63.28
2019-05-19T03:33:22.184Z,63.48
2019-05-19T03:34:22.172Z,64.28
2019-05-19T03:35:22.153Z,63.28
2019-05-19T03:36:22.141Z,64.08
2019-05-19T03:37:22.136Z,64.08
2019-05-19T03:38:22.124Z,63.78
2019-05-19T03:39:22.108Z,63.37
2019-05-19T03:40:22.103Z,63.25
2019-05-19T03:41:22.088Z,62.84
2019-05-19T03:42:22.077Z,62.43
2019-05-19T03:43:22.070Z,62.64
2019-05-19T03:44:22.051Z,62.31
2019-05-19T03:45:22.045Z,62.00
2019-05-19T03:46:22.031Z,62.10
2019-05-19T03:47:22.020Z,62.40
2019-05-19T03:48:22.005Z,61.67
2019-05-19T03:49:21.993Z,61.97
2019-05-19T03:50:21.981Z,61.67
2019-05-19T03:51:30.828Z,61.57
2019-05-19T03:52:22.988Z,61.80
2019-05-19T03:53:21.967Z,62.00
2019-05-19T03:54:21.939Z,62.31
2019-05-19T03:55:21.926Z,62.51
2019-05-19T03:56:21.920Z,62.20
2019-05-19T03:57:21.906Z,62.31
2019-05-19T03:58:21.890Z,62.20
2019-05-19T03:59:21.882Z,62.10
2019-05-19T04:00:21.875Z,62.10
2019-05-19T04:01:21.857Z,62.00
2019-05-19T04:02:21.851Z,62.10
2019-05-19T04:03:21.835Z,62.34
2019-05-19T04:04:21.826Z,62.10
2019-05-19T04:05:21.817Z,62.20
2019-05-19T04:06:21.804Z,62.34
2019-05-19T04:07:21.792Z,62.31
2019-05-19T04:08:21.779Z,62.20
2019-05-19T04:09:21.769Z,62.20
2019-05-19T04:10:21.757Z,62.31
2019-05-19T04:11:21.743Z,61.90
2019-05-19T04:12:21.737Z,61.70
2019-05-19T04:13:21.719Z,61.67
2019-05-19T04:14:21.713Z,60.76
2019-05-19T04:15:21.726Z,61.27
2019-05-19T04:16:21.687Z,60.43
2019-05-19T04:17:21.678Z,60.13
2019-05-19T04:18:21.661Z,60.10
2019-05-19T04:19:21.651Z,60.30
2019-05-19T04:20:21.651Z,59.39
2019-05-19T04:21:21.627Z,58.86
2019-05-19T04:22:21.619Z,59.29
2019-05-19T04:23:21.608Z,59.06
2019-05-19T04:24:21.596Z,58.76
2019-05-19T04:25:21.581Z,58.76
2019-05-19T04:26:21.570Z,58.33
2019-05-19T04:27:21.559Z,58.13
2019-05-19T04:28:21.546Z,58.23
2019-05-19T04:29:21.539Z,57.83
2019-05-19T04:30:21.524Z,57.60
2019-05-19T04:31:21.512Z,57.29
2019-05-19T04:32:21.509Z,57.29
2019-05-19T04:33:21.489Z,57.29
2019-05-19T04:34:21.478Z,57.62
2019-05-19T04:35:21.476Z,57.32
2019-05-19T04:36:21.454Z,57.52
2019-05-19T04:37:21.443Z,57.72
2019-05-19T04:38:21.444Z,57.72
2019-05-19T04:39:21.632Z,57.72
2019-05-19T04:40:21.413Z,57.62
2019-05-19T04:41:21.399Z,57.40
2019-05-19T04:42:21.388Z,56.76
2019-05-19T04:43:21.381Z,55.93
2019-05-19T04:44:21.379Z,55.20
2019-05-19T04:45:21.356Z,55.20
2019-05-19T04:46:21.363Z,54.98
2019-05-19T04:47:21.374Z,55.20
2019-05-19T04:48:21.372Z,54.87
2019-05-19T04:49:21.375Z,54.47
2019-05-19T04:50:21.311Z,54.07
2019-05-19T04:51:21.319Z,53.85
2019-05-19T04:52:21.320Z,53.22
2019-05-19T04:53:21.321Z,53.69
2019-05-19T04:54:21.256Z,52.56
2019-05-19T04:55:21.244Z,51.34
2019-05-19T04:56:21.233Z,51.11
2019-05-19T04:57:21.232Z,50.98
2019-05-19T04:58:21.211Z,50.56
2019-05-19T04:59:21.206Z,50.46
2019-05-19T05:00:21.198Z,49.84
2019-05-19T05:01:21.182Z,49.43
2019-05-19T05:02:21.168Z,49.43
2019-05-19T05:03:21.156Z,49.54
2019-05-19T05:04:21.152Z,49.66
2019-05-19T05:05:21.134Z,50.36
2019-05-19T05:06:21.131Z,50.36
2019-05-19T05:07:21.119Z,50.68
2019-05-19T05:08:29.839Z,50.91
2019-05-19T05:09:22.112Z,51.09
2019-05-19T05:10:21.076Z,50.78
2019-05-19T05:11:21.066Z,50.46
2019-05-19T05:12:21.055Z,50.04
2019-05-19T05:13:21.047Z,49.41
2019-05-19T05:14:21.029Z,48.99
2019-05-19T05:15:21.018Z,48.27
2019-05-19T05:16:21.033Z,47.35
2019-05-19T05:17:21.016Z,47.32
2019-05-19T05:18:20.983Z,47.12
2019-05-19T05:19:20.972Z,47.22
2019-05-19T05:20:20.963Z,46.92
2019-05-19T05:21:20.951Z,47.12
2019-05-19T05:22:22.391Z,46.90
2019-05-19T05:23:20.930Z,47.00
2019-05-19T05:24:20.918Z,46.30
2019-05-19T05:25:20.906Z,46.50
2019-05-19T05:26:20.895Z,46.40
2019-05-19T05:27:20.892Z,46.62
2019-05-19T05:28:20.875Z,46.72
2019-05-19T05:29:20.858Z,46.92
2019-05-19T05:30:20.846Z,47.12
2019-05-19T05:31:20.835Z,47.54
2019-05-19T05:32:20.828Z,48.04
2019-05-19T05:33:20.814Z,48.07
2019-05-19T05:34:20.803Z,48.27
2019-05-19T05:35:20.796Z,48.69
2019-05-19T05:36:20.779Z,48.59
2019-05-19T05:37:20.773Z,48.37
2019-05-19T05:38:20.758Z,47.97
2019-05-19T05:39:20.754Z,47.84
2019-05-19T05:40:20.736Z,47.24
2019-05-19T05:41:20.723Z,47.42
2019-05-19T05:42:20.731Z,47.02
2019-05-19T05:43:20.702Z,47.22
2019-05-19T05:44:20.691Z,47.52
2019-05-19T05:45:20.678Z,47.12
2019-05-19T05:46:20.678Z,47.12
2019-05-19T05:47:20.656Z,47.02
2019-05-19T05:48:20.646Z,46.72
2019-05-19T05:49:20.637Z,46.60
2019-05-19T05:50:20.624Z,46.70
2019-05-19T05:51:20.633Z,46.50
2019-05-19T05:52:20.600Z,46.70
2019-05-19T05:53:20.589Z,46.90
2019-05-19T05:54:20.581Z,46.67
2019-05-19T05:55:20.566Z,45.56
2019-05-19T05:56:20.560Z,45.14
2019-05-19T05:57:20.569Z,44.89
2019-05-19T05:58:20.534Z,43.68
2019-05-19T05:59:20.522Z,43.34
2019-05-19T06:00:20.515Z,42.72
2019-05-19T06:01:20.500Z,41.69
2019-05-19T06:02:20.491Z,41.37
2019-05-19T06:03:20.477Z,40.86
2019-05-19T06:04:20.468Z,40.36
2019-05-19T06:05:20.456Z,40.75
2019-05-19T06:06:20.464Z,40.56
2019-05-19T06:07:20.442Z,40.36
2019-05-19T06:08:20.427Z,40.14
2019-05-19T06:09:20.411Z,39.41
2019-05-19T06:10:20.401Z,38.83
2019-05-19T06:11:20.388Z,39.23
2019-05-19T06:12:20.379Z,39.33
2019-05-19T06:13:20.366Z,39.33
2019-05-19T06:14:20.357Z,38.89
2019-05-19T06:15:20.345Z,38.78
2019-05-19T06:16:20.337Z,38.17
2019-05-19T06:17:20.320Z,37.26
2019-05-19T06:18:20.312Z,36.23
2019-05-19T06:19:20.301Z,36.73
2019-05-19T06:20:20.286Z,36.93
2019-05-19T06:21:20.282Z,36.61
2019-05-19T06:22:20.265Z,36.12
2019-05-19T06:23:20.257Z,36.32
2019-05-19T06:24:20.252Z,36.12
2019-05-19T06:25:20.261Z,36.20
2019-05-19T06:26:20.226Z,35.40
2019-05-19T06:27:20.215Z,36.18
2019-05-19T06:28:20.198Z,36.05
2019-05-19T06:29:20.193Z,34.55
2019-05-19T06:30:20.190Z,34.53
2019-05-19T06:31:20.167Z,34.44
2019-05-19T06:32:20.174Z,34.62
2019-05-19T06:33:20.144Z,33.91
2019-05-19T06:34:20.134Z,34.11
2019-05-19T06:35:20.125Z,32.90
2019-05-19T06:36:20.110Z,33.19
2019-05-19T06:37:20.101Z,32.78
2019-05-19T06:38:20.090Z,32.49
2019-05-19T06:39:20.082Z,32.78
2019-05-19T06:40:20.067Z,32.97
2019-05-19T06:41:20.056Z,32.56
2019-05-19T06:42:20.046Z,31.76
2019-05-19T06:43:20.034Z,31.95
2019-05-19T06:44:20.020Z,31.54
2019-05-19T06:45:20.012Z,31.45
2019-05-19T06:46:20.008Z,30.94
2019-05-19T06:47:19.989Z,31.04
2019-05-19T06:48:19.978Z,31.32
2019-05-19T06:49:19.967Z,30.62
2019-05-19T06:50:19.957Z,30.71
2019-05-19T06:51:19.948Z,30.41
2019-05-19T06:52:19.934Z,29.80
2019-05-19T06:53:19.922Z,30.39
2019-05-19T06:54:19.934Z,30.39
2019-05-19T06:55:19.902Z,29.79
2019-05-19T06:56:19.893Z,29.50
2019-05-19T06:57:19.887Z,29.58
2019-05-19T06:58:19.871Z,29.88
2019-05-19T06:59:19.859Z,29.98
2019-05-19T07:00:19.846Z,29.37
2019-05-19T07:01:19.840Z,29.57
2019-05-19T07:02:19.949Z,28.97
2019-05-19T07:03:19.819Z,28.27
2019-05-19T07:04:19.804Z,28.27
2019-05-19T07:05:19.791Z,28.27
2019-05-19T07:06:19.779Z,28.74
2019-05-19T07:07:19.768Z,28.25
2019-05-19T07:08:19.758Z,28.14
2019-05-19T07:09:19.749Z,27.75
2019-05-19T07:10:19.735Z,27.75
2019-05-19T07:11:19.726Z,27.97
2019-05-19T07:12:19.716Z,27.66
2019-05-19T07:13:19.707Z,28.05
2019-05-19T07:14:19.697Z,27.84
2019-05-19T07:15:19.683Z,27.94
2019-05-19T07:16:19.674Z,27.94
2019-05-19T07:17:19.658Z,28.02
2019-05-19T07:18:19.648Z,27.42
2019-05-19T07:19:19.640Z,27.52
2019-05-19T07:20:19.631Z,27.81
2019-05-19T07:21:19.616Z,27.45
2019-05-19T07:22:19.651Z,27.94
2019-05-19T07:23:27.927Z,27.63
2019-05-19T07:24:44.060Z,27.24
2019-05-19T07:25:44.048Z,27.23
2019-05-19T07:26:44.041Z,27.02
2019-05-19T07:27:44.028Z,26.92
2019-05-19T07:28:44.018Z,26.73
2019-05-19T07:29:44.013Z,26.81
2019-05-19T07:30:43.997Z,26.62
2019-05-19T07:31:43.985Z,26.70
2019-05-19T07:32:43.978Z,27.00
2019-05-19T07:33:43.968Z,26.90
2019-05-19T07:34:43.953Z,26.20
2019-05-19T07:35:43.946Z,25.80
2019-05-19T07:36:43.938Z,26.19
2019-05-19T07:37:43.928Z,25.42
2019-05-19T07:38:43.913Z,26.19
2019-05-19T07:39:43.901Z,25.12
2019-05-19T07:40:43.892Z,24.65
2019-05-19T07:41:43.881Z,26.23
2019-05-19T07:42:43.869Z,26.13
2019-05-19T07:43:43.864Z,26.02
2019-05-19T07:44:45.361Z,25.82
2019-05-19T07:45:43.842Z,24.93
2019-05-19T07:46:43.842Z,24.93
2019-05-19T07:47:43.816Z,25.11
2019-05-19T07:48:43.808Z,24.82
2019-05-19T07:49:43.802Z,25.10
2019-05-19T07:50:43.791Z,24.71
2019-05-19T07:51:43.778Z,23.94
2019-05-19T07:52:43.791Z,24.42
2019-05-19T07:53:43.757Z,24.32
2019-05-19T07:54:43.800Z,24.31
2019-05-19T07:55:43.739Z,24.42
2019-05-19T07:56:43.804Z,24.14
2019-05-19T07:57:43.720Z,24.42
2019-05-19T07:58:43.738Z,24.12
2019-05-19T07:59:43.698Z,24.10
2019-05-19T08:00:43.697Z,23.93
2019-05-19T08:01:43.671Z,24.15
2019-05-19T08:02:43.659Z,25.03
2019-05-19T08:03:43.654Z,24.54
2019-05-19T08:04:43.646Z,24.35
2019-05-19T08:05:43.628Z,25.03
2019-05-19T08:06:43.621Z,24.74
2019-05-19T08:07:43.608Z,24.73
2019-05-19T08:08:43.600Z,24.54
2019-05-19T08:09:43.586Z,24.06
2019-05-19T08:10:43.605Z,24.94
2019-05-19T08:11:43.566Z,24.76
2019-05-19T08:12:43.559Z,24.86
2019-05-19T08:13:43.551Z,25.26
2019-05-19T08:14:43.539Z,25.06
2019-05-19T08:15:43.530Z,25.25
2019-05-19T08:16:43.525Z,25.05
2019-05-19T08:17:43.507Z,23.88
2019-05-19T08:18:43.494Z,25.16
2019-05-19T08:19:43.487Z,25.65
2019-05-19T08:20:43.474Z,25.06
2019-05-19T08:21:43.463Z,24.57
2019-05-19T08:22:43.482Z,24.67
2019-05-19T08:23:58.427Z,24.68
2019-05-19T08:25:07.920Z,25.05
2019-05-19T08:26:07.904Z,24.75
2019-05-19T08:27:07.901Z,24.25
2019-05-19T08:28:09.128Z,24.15
2019-05-19T08:29:07.874Z,23.77
2019-05-19T08:30:07.865Z,24.54
2019-05-19T08:31:07.854Z,24.25
2019-05-19T08:32:07.874Z,24.26
2019-05-19T08:33:07.874Z,24.14
2019-05-19T08:34:08.097Z,24.34
2019-05-19T08:35:07.816Z,24.53
2019-05-19T08:36:07.800Z,24.32
2019-05-19T08:37:07.794Z,24.52
2019-05-19T08:38:07.783Z,23.55
2019-05-19T08:39:07.769Z,24.12
2019-05-19T08:40:07.768Z,23.54
2019-05-19T08:41:07.761Z,24.13
2019-05-19T08:42:07.741Z,24.34
2019-05-19T08:43:07.727Z,24.24
2019-05-19T08:44:07.718Z,24.32
2019-05-19T08:45:07.735Z,23.84
2019-05-19T08:46:07.704Z,24.43
2019-05-19T08:47:07.687Z,24.52
2019-05-19T08:48:07.678Z,24.35
2019-05-19T08:49:07.668Z,24.15
2019-05-19T08:50:07.665Z,24.74
2019-05-19T08:51:07.653Z,24.93
2019-05-19T08:52:07.637Z,25.20
2019-05-19T08:53:07.633Z,24.41
2019-05-19T08:54:15.043Z,23.44
2019-05-19T08:56:32.075Z,24.04
2019-05-19T08:57:32.087Z,23.96
2019-05-19T08:58:32.054Z,24.07
2019-05-19T08:59:32.046Z,24.18
2019-05-19T09:00:36.144Z,24.56
2019-05-19T09:01:56.504Z,24.35
2019-05-19T09:02:56.493Z,24.25
2019-05-19T09:03:56.481Z,24.25
2019-05-19T09:04:56.471Z,24.45
2019-05-19T09:05:56.463Z,24.26
2019-05-19T09:06:56.455Z,23.87
2019-05-19T09:07:56.442Z,24.85
2019-05-19T09:08:56.433Z,24.35
2019-05-19T09:09:56.425Z,24.25
2019-05-19T09:10:56.411Z,24.36
2019-05-19T09:11:56.406Z,23.87
2019-05-19T09:12:56.395Z,24.42
2019-05-19T09:13:56.420Z,23.94
2019-05-19T09:14:56.372Z,24.13
2019-05-19T09:15:56.366Z,24.23
2019-05-19T09:16:56.360Z,23.94
2019-05-19T09:17:56.388Z,23.84
2019-05-19T09:18:56.331Z,24.24
2019-05-19T09:19:56.322Z,24.53
2019-05-19T09:20:56.313Z,24.53
2019-05-19T09:21:56.303Z,24.25
2019-05-19T09:22:56.292Z,24.84
2019-05-19T09:23:56.328Z,25.21
2019-05-19T09:24:56.270Z,24.42
2019-05-19T09:25:56.263Z,24.51
2019-05-19T09:26:56.271Z,24.13
2019-05-19T09:27:56.249Z,23.93
2019-05-19T09:28:56.236Z,23.93
2019-05-19T09:29:56.226Z,23.71
2019-05-19T09:30:56.211Z,23.49
2019-05-19T09:31:56.210Z,23.60
2019-05-19T09:32:56.193Z,23.91
2019-05-19T09:33:56.182Z,23.91
2019-05-19T09:34:56.176Z,24.02
2019-05-19T09:35:56.162Z,24.10
2019-05-19T09:36:56.154Z,24.51
2019-05-19T09:37:56.143Z,24.31
2019-05-19T09:38:56.133Z,24.12
2019-05-19T09:39:56.122Z,24.31
2019-05-19T09:40:56.112Z,23.93
2019-05-19T09:41:56.104Z,23.54
2019-05-19T09:42:56.091Z,23.43
2019-05-19T09:43:56.115Z,23.93
2019-05-19T09:44:56.074Z,23.54
2019-05-19T09:45:56.066Z,23.83
2019-05-19T09:46:56.054Z,23.72
2019-05-19T09:47:56.044Z,24.41
2019-05-19T09:48:56.038Z,24.41
2019-05-19T09:49:56.024Z,23.62
2019-05-19T09:50:56.145Z,23.30
2019-05-19T09:51:56.005Z,23.27
2019-05-19T09:52:55.995Z,22.97
2019-05-19T09:53:55.991Z,22.60
2019-05-19T09:54:56.019Z,22.52
2019-05-19T09:55:55.965Z,24.00
2019-05-19T09:56:55.959Z,23.89
2019-05-19T09:57:55.946Z,23.99
2019-05-19T09:58:55.937Z,24.07
2019-05-19T09:59:55.931Z,23.87
2019-05-19T10:00:55.925Z,22.71
2019-05-19T10:01:55.918Z,22.41
2019-05-19T10:02:55.900Z,22.79
2019-05-19T10:03:55.888Z,22.89
2019-05-19T10:04:55.879Z,22.41
2019-05-19T10:05:55.870Z,22.50
2019-05-19T10:06:56.029Z,22.89
2019-05-19T10:07:55.849Z,22.21
2019-05-19T10:08:55.894Z,22.61
2019-05-19T10:09:55.835Z,22.80
2019-05-19T10:10:55.822Z,22.72
2019-05-19T10:11:55.816Z,22.52
2019-05-19T10:12:55.808Z,22.51
2019-05-19T10:13:55.797Z,23.08
2019-05-19T10:14:55.789Z,22.99
2019-05-19T10:15:55.780Z,22.69
2019-05-19T10:16:55.763Z,22.99
2019-05-19T10:17:55.752Z,22.60
2019-05-19T10:18:55.746Z,22.89
2019-05-19T10:19:55.734Z,22.90
2019-05-19T10:20:55.726Z,23.59
2019-05-19T10:21:55.718Z,22.72
2019-05-19T10:22:55.703Z,22.91
2019-05-19T10:23:55.696Z,22.82
2019-05-19T10:25:10.857Z,22.61
2019-05-19T10:25:56.693Z,23.41
2019-05-19T10:26:55.670Z,24.20
2019-05-19T10:27:55.660Z,24.31
2019-05-19T10:28:55.645Z,24.51
2019-05-19T10:29:55.638Z,24.12
2019-05-19T10:30:55.635Z,23.52
2019-05-19T10:31:55.622Z,24.00
2019-05-19T10:32:58.640Z,23.41
2019-05-19T10:33:55.604Z,23.38
2019-05-19T10:34:55.611Z,22.89
2019-05-19T10:35:55.581Z,22.88
2019-05-19T10:36:55.576Z,22.10
2019-05-19T10:37:55.569Z,22.49
2019-05-19T10:38:55.551Z,22.31
2019-05-19T10:39:55.543Z,22.30
2019-05-19T10:40:55.532Z,22.60
2019-05-19T10:41:55.525Z,21.93
2019-05-19T10:42:55.513Z,22.79
2019-05-19T10:43:55.508Z,22.60
2019-05-19T10:44:55.492Z,22.99
2019-05-19T10:45:55.483Z,22.04
2019-05-19T10:46:55.474Z,21.94
2019-05-19T10:47:55.466Z,23.38
2019-05-19T10:48:55.454Z,22.97
2019-05-19T10:49:55.450Z,21.70
2019-05-19T10:50:55.437Z,22.17
2019-05-19T10:51:55.430Z,21.88
2019-05-19T10:52:55.421Z,21.70
2019-05-19T10:53:55.407Z,21.70
2019-05-19T10:54:55.401Z,22.10
2019-05-19T10:55:55.389Z,21.92
2019-05-19T10:56:55.379Z,22.03
2019-05-19T10:57:55.369Z,21.64
2019-05-19T10:58:55.360Z,22.22
2019-05-19T10:59:55.355Z,22.24
2019-05-19T11:00:55.344Z,22.41
2019-05-19T11:01:55.333Z,22.41
2019-05-19T11:02:55.324Z,22.43
2019-05-19T11:03:55.313Z,22.24
2019-05-19T11:04:55.305Z,22.71
2019-05-19T11:05:55.299Z,22.62
2019-05-19T11:06:55.294Z,22.92
2019-05-19T11:07:55.276Z,23.10
2019-05-19T11:08:55.269Z,22.61
2019-05-19T11:09:55.263Z,22.31
2019-05-19T11:10:55.259Z,22.60
2019-05-19T11:11:55.239Z,22.41
2019-05-19T11:12:55.228Z,23.71
2019-05-19T11:13:55.219Z,23.22
2019-05-19T11:14:55.210Z,22.44
2019-05-19T11:15:55.207Z,22.54
2019-05-19T11:16:55.191Z,22.83
2019-05-19T11:17:55.187Z,23.83
2019-05-19T11:18:55.171Z,23.82
2019-05-19T11:19:55.160Z,23.83
2019-05-19T11:20:55.151Z,24.43
2019-05-19T11:21:55.153Z,24.15
2019-05-19T11:22:55.134Z,23.93
2019-05-19T11:23:55.121Z,24.15
2019-05-19T11:24:55.112Z,24.16
2019-05-19T11:25:55.102Z,24.06
2019-05-19T11:26:55.096Z,23.35
2019-05-19T11:27:55.085Z,23.72
2019-05-19T11:28:55.073Z,22.46
2019-05-19T11:29:55.063Z,22.75
2019-05-19T11:30:55.053Z,23.05
2019-05-19T11:31:55.047Z,23.45
2019-05-19T11:32:55.033Z,23.60
2019-05-19T11:33:55.027Z,24.75
2019-05-19T11:34:55.014Z,23.98
2019-05-19T11:35:55.003Z,24.37
2019-05-19T11:36:54.997Z,24.16
2019-05-19T11:37:54.983Z,24.56
2019-05-19T11:38:54.974Z,23.59
2019-05-19T11:39:54.964Z,24.26
2019-05-19T11:40:54.957Z,23.49
2019-05-19T11:41:54.944Z,24.19
2019-05-19T11:42:54.941Z,24.31
2019-05-19T11:43:54.929Z,23.91
2019-05-19T11:44:54.928Z,24.37
2019-05-19T11:45:54.906Z,24.37
2019-05-19T11:46:54.896Z,24.48
2019-05-19T11:47:54.890Z,24.10
2019-05-19T11:48:54.875Z,24.80
2019-05-19T11:49:54.868Z,24.91
2019-05-19T11:50:54.860Z,24.81
2019-05-19T11:51:54.845Z,24.91
2019-05-19T11:52:54.835Z,24.73
2019-05-19T11:53:54.826Z,24.91
2019-05-19T11:54:54.826Z,24.40
2019-05-19T11:56:06.154Z,24.09
2019-05-19T11:57:19.269Z,24.37
2019-05-19T11:58:19.498Z,24.06
2019-05-19T11:59:19.249Z,24.25
2019-05-19T12:00:19.245Z,23.57
2019-05-19T12:01:19.233Z,23.66
2019-05-19T12:02:19.219Z,24.06
2019-05-19T12:03:19.215Z,23.78
2019-05-19T12:04:19.200Z,23.68
2019-05-19T12:05:19.191Z,23.98
2019-05-19T12:06:19.187Z,24.09
2019-05-19T12:07:19.175Z,24.30
2019-05-19T12:08:19.165Z,25.20
2019-05-19T12:09:19.150Z,24.81
2019-05-19T12:10:19.138Z,25.99
2019-05-19T12:11:19.131Z,24.82
2019-05-19T12:12:19.119Z,25.39
2019-05-19T12:13:19.115Z,25.10
2019-05-19T12:14:19.099Z,24.91
2019-05-19T12:15:19.092Z,25.28
2019-05-19T12:16:19.085Z,24.99
2019-05-19T12:17:19.065Z,25.00
2019-05-19T12:18:19.058Z,25.68
2019-05-19T12:19:19.048Z,25.89
2019-05-19T12:20:19.037Z,26.08
2019-05-19T12:21:19.027Z,25.50
2019-05-19T12:22:19.015Z,25.12
2019-05-19T12:23:19.004Z,26.20
2019-05-19T12:24:18.996Z,25.88
2019-05-19T12:25:18.989Z,25.00
2019-05-19T12:26:23.049Z,24.60
2019-05-19T12:27:18.963Z,24.98
2019-05-19T12:28:18.961Z,24.95
2019-05-19T12:29:18.944Z,24.58
2019-05-19T12:30:18.940Z,25.07
2019-05-19T12:31:18.923Z,24.87
2019-05-19T12:32:18.950Z,23.91
2019-05-19T12:33:18.901Z,25.06
2019-05-19T12:34:18.895Z,24.90
2019-05-19T12:35:18.892Z,24.81
2019-05-19T12:36:18.875Z,26.19
2019-05-19T12:37:18.861Z,25.78
2019-05-19T12:38:18.855Z,25.78
2019-05-19T12:39:18.847Z,26.97
2019-05-19T12:40:22.323Z,26.80
2019-05-19T12:41:18.828Z,26.81
2019-05-19T12:42:18.810Z,26.82
2019-05-19T12:43:18.805Z,27.61
2019-05-19T12:44:18.798Z,27.52
2019-05-19T12:45:18.781Z,27.50
2019-05-19T12:46:18.777Z,27.28
2019-05-19T12:47:18.759Z,27.69
2019-05-19T12:48:18.751Z,28.28
2019-05-19T12:49:18.739Z,27.11
2019-05-19T12:50:18.728Z,27.99
2019-05-19T12:51:18.762Z,27.60
2019-05-19T12:52:18.705Z,27.49
2019-05-19T12:53:18.701Z,28.00
2019-05-19T12:54:18.694Z,28.30
2019-05-19T12:55:18.679Z,27.91
2019-05-19T12:56:18.676Z,29.78
2019-05-19T12:57:21.192Z,29.78
2019-05-19T12:58:18.775Z,28.90
2019-05-19T12:59:18.635Z,28.12
2019-05-19T13:00:18.630Z,29.21
2019-05-19T13:01:18.613Z,29.90
2019-05-19T13:02:18.602Z,29.71
2019-05-19T13:03:18.602Z,30.29
2019-05-19T13:04:18.587Z,30.10
2019-05-19T13:05:18.571Z,30.41
2019-05-19T13:06:18.560Z,29.92
2019-05-19T13:07:18.558Z,30.51
2019-05-19T13:08:18.539Z,30.60
2019-05-19T13:09:18.529Z,30.81
2019-05-19T13:10:18.626Z,31.32
2019-05-19T13:11:18.511Z,31.51
2019-05-19T13:12:18.501Z,31.71
2019-05-19T13:13:18.494Z,31.73
2019-05-19T13:14:18.477Z,31.51
2019-05-19T13:15:18.465Z,31.82
2019-05-19T13:16:18.463Z,32.12
2019-05-19T13:17:18.448Z,31.93
2019-05-19T13:18:18.435Z,32.23
2019-05-19T13:19:18.433Z,31.56
2019-05-19T13:20:18.411Z,31.93
2019-05-19T13:21:18.797Z,31.25
2019-05-19T13:22:18.412Z,31.93
2019-05-19T13:23:18.415Z,31.46
2019-05-19T13:24:18.383Z,31.76
2019-05-19T13:25:18.366Z,31.56
2019-05-19T13:26:18.353Z,31.09
2019-05-19T13:27:18.338Z,30.59
2019-05-19T13:28:18.326Z,30.40
2019-05-19T13:29:18.317Z,30.71
2019-05-19T13:30:18.312Z,30.41
2019-05-19T13:31:18.298Z,30.90
2019-05-19T13:32:18.287Z,30.92
2019-05-19T13:33:18.275Z,31.51
2019-05-19T13:34:18.267Z,31.61
2019-05-19T13:35:18.253Z,32.31
2019-05-19T13:36:18.247Z,32.01
2019-05-19T13:37:18.236Z,31.70
2019-05-19T13:38:18.224Z,31.43
2019-05-19T13:39:18.213Z,30.45
2019-05-19T13:40:18.206Z,30.64
2019-05-19T13:41:18.192Z,30.72
2019-05-19T13:42:18.189Z,30.43
2019-05-19T13:43:18.169Z,31.69
2019-05-19T13:44:18.169Z,32.97
2019-05-19T13:45:18.169Z,34.06
2019-05-19T13:46:18.174Z,34.65
2019-05-19T13:47:18.180Z,34.16
2019-05-19T13:48:18.124Z,34.55
2019-05-19T13:49:18.152Z,34.46
2019-05-19T13:50:18.127Z,34.77
2019-05-19T13:51:18.129Z,35.16
2019-05-19T13:52:18.135Z,35.87
2019-05-19T13:53:18.063Z,35.66
2019-05-19T13:54:18.056Z,36.27
2019-05-19T13:55:18.041Z,36.29
2019-05-19T13:56:18.042Z,36.59
2019-05-19T13:57:18.021Z,36.29
2019-05-19T13:58:18.010Z,36.80
2019-05-19T13:59:18.005Z,37.49
2019-05-19T14:00:17.992Z,37.29
2019-05-19T14:01:28.131Z,37.20
2019-05-19T14:02:18.995Z,37.81
2019-05-19T14:03:17.957Z,38.20
2019-05-19T14:04:17.949Z,37.92
2019-05-19T14:05:17.940Z,38.29
2019-05-19T14:06:17.937Z,38.71
2019-05-19T14:07:17.935Z,38.61
2019-05-19T14:08:17.903Z,38.41
2019-05-19T14:09:17.894Z,38.33
2019-05-19T14:10:17.885Z,38.33
2019-05-19T14:11:17.872Z,38.63
2019-05-19T14:12:17.860Z,38.04
2019-05-19T14:13:17.856Z,38.43
2019-05-19T14:14:17.850Z,38.15
2019-05-19T14:15:17.829Z,38.25
2019-05-19T14:16:17.822Z,38.94
2019-05-19T14:17:17.870Z,38.86
2019-05-19T14:18:17.816Z,38.76
2019-05-19T14:19:17.784Z,39.06
2019-05-19T14:20:17.774Z,38.76
2019-05-19T14:21:17.764Z,38.98
2019-05-19T14:22:17.751Z,38.88
2019-05-19T14:23:17.741Z,39.37
2019-05-19T14:24:17.736Z,39.37
2019-05-19T14:25:17.720Z,39.18
2019-05-19T14:26:17.717Z,39.16
2019-05-19T14:27:29.613Z,39.36
2019-05-19T14:28:42.165Z,39.16
2019-05-19T14:29:42.151Z,39.16
2019-05-19T14:30:42.146Z,39.53
2019-05-19T14:31:42.131Z,39.16
2019-05-19T14:32:42.118Z,38.96
2019-05-19T14:33:42.108Z,38.86
2019-05-19T14:34:42.101Z,39.45
2019-05-19T14:35:42.095Z,39.16
2019-05-19T14:36:42.077Z,39.18
2019-05-19T14:37:42.066Z,39.26
2019-05-19T14:38:42.057Z,38.67
2019-05-19T14:39:42.060Z,39.87
2019-05-19T14:40:42.032Z,39.28
2019-05-19T14:41:42.024Z,39.57
2019-05-19T14:42:42.016Z,40.24
2019-05-19T14:43:42.000Z,40.83
2019-05-19T14:44:41.994Z,40.24
2019-05-19T14:45:41.985Z,40.83
2019-05-19T14:46:41.969Z,40.44
2019-05-19T14:47:41.958Z,40.44
2019-05-19T14:48:41.950Z,39.85
2019-05-19T14:49:41.939Z,40.24
2019-05-19T14:50:41.925Z,39.97
2019-05-19T14:51:41.921Z,40.27
2019-05-19T14:52:41.904Z,40.36
2019-05-19T14:53:41.893Z,40.58
2019-05-19T14:54:41.887Z,40.97
2019-05-19T14:55:41.876Z,40.28
2019-05-19T14:56:41.862Z,40.68
2019-05-19T14:57:45.257Z,40.28
2019-05-19T14:58:41.845Z,40.78
2019-05-19T14:59:41.830Z,40.38
2019-05-19T15:00:41.821Z,40.19
2019-05-19T15:01:41.819Z,40.48
2019-05-19T15:02:41.800Z,40.88
2019-05-19T15:03:41.812Z,40.58
2019-05-19T15:04:41.780Z,40.58
2019-05-19T15:05:41.768Z,40.99
2019-05-19T15:06:41.759Z,40.88
2019-05-19T15:07:41.743Z,40.48
2019-05-19T15:08:41.734Z,40.68
2019-05-19T15:09:41.731Z,40.89
2019-05-19T15:10:41.710Z,42.77
2019-05-19T15:11:41.703Z,42.77
2019-05-19T15:12:41.691Z,42.77
2019-05-19T15:13:41.678Z,44.08
2019-05-19T15:14:41.672Z,44.06
2019-05-19T15:15:41.657Z,43.88
2019-05-19T15:16:41.647Z,42.89
2019-05-19T15:17:41.635Z,43.48
2019-05-19T15:18:41.623Z,43.19
2019-05-19T15:19:41.614Z,42.71
2019-05-19T15:20:41.602Z,43.48
2019-05-19T15:21:41.602Z,43.29